Grimsby, Illinois
Current Conditions -  °F | °C
As of 9:52 PM on Thursday 27 Nov 2014 (Local Time) from KMDH Reporting Station
Haze Haze  
Wind Chill: 24°   Ceiling: Unl
Heat Index: 24°   Visibility: 5mi
Dew Point: 22°   Wind: 0mph
Humidity: 91%   Direction: NA
Pressure: 30.46"   Gusts: NA
Location:  37.7438°N, 89.4409°W
Report Text: KMDH 280352Z AUTO 00000KT 5SM BR CLR M04/M06 A3046 RMK AO2 SLP319 T10441056
Loading
Personal Weather Stations






























Interactive Weather Map New forecast layout! Learn more

10-Day Weather Forecast

Advertisements
Track Severe Weather on mobile